Latest Weather Observations for Laverton

IDV60801

Issued at 3:03 am EDT Friday 31 March 2017 (issued every 30 minutes, with the page automatically refreshed every 10 minutes)

About weather observations | Map of weather stations | Latest weather observations for VIC | Other Formats
Station Details ID: 087031 Name: LAVERTON RAAF Lat: -37.86 Lon: 144.76 Height: 20.1 m
Data from the previous 72 hours. | See also: Recent months at Laverton
Date/Time
EDT
Temp
°C
App
Temp
°C
Dew
Point
°C
Rel
Hum
%
Delta-T
°C
Wind Press
QNH
hPa
Press
MSL
hPa
Rain since
9am
mm
Dir  Spd
km/h
Gust
km/h
Spd
kts
Gust
kts
31/02:30am 9.7 6.5 6.8 82 1.4 W 13 17 7 9 1021.0 1020.9 1.0
31/02:00am 10.3 6.7 6.8 79 1.6 W 15 19 8 10 1021.2 1021.1 1.0
31/01:30am 10.4 6.4 6.7 78 1.7 W 17 22 9 12 1021.3 1021.2 1.0
31/01:00am 10.0 7.1 6.7 80 1.5 W 11 15 6 8 1021.4 1021.3 1.0
31/12:30am 10.5 7.7 6.8 78 1.7 W 11 13 6 7 1021.7 1021.6 1.0
31/12:00am 11.0 7.8 6.9 76 1.9 W 13 17 7 9 1022.0 1021.9 1.0
 
Date/Time
EDT
Temp
°C
App
Temp
°C
Dew
Point
°C
Rel
Hum
%
Delta-T
°C
Wind Press
QNH
hPa
Press
MSL
hPa
Rain since
9am
mm
Dir  Spd
km/h
Gust
km/h
Spd
kts
Gust
kts
30/11:30pm 11.4 9.0 6.9 74 2.1 WSW 9 13 5 7 1022.3 1022.2 1.0
30/11:00pm 11.8 7.3 6.9 72 2.3 SW 20 28 11 15 1022.5 1022.4 1.0
30/10:30pm 12.2 8.2 6.7 69 2.6 WSW 17 26 9 14 1022.4 1022.3 1.0
30/10:00pm 12.3 9.3 7.6 73 2.3 SW 13 17 7 9 1022.4 1022.3 1.0
30/09:30pm 12.8 8.6 7.5 70 2.6 SSW 19 26 10 14 1022.4 1022.3 1.0
30/09:00pm 13.1 9.1 8.2 72 2.4 SW 19 33 10 18 1022.2 1022.1 1.0
30/08:30pm 13.2 9.5 7.9 70 2.6 SSW 17 22 9 12 1021.7 1021.6 1.0
30/08:00pm 13.8 9.6 7.3 65 3.2 SSW 19 32 10 17 1021.2 1021.1 1.0
30/07:30pm 14.1 8.8 6.7 61 3.6 SSW 24 35 13 19 1020.8 1020.7 1.0
30/07:00pm 14.2 7.9 7.5 64 3.3 SSW 30 41 16 22 1020.3 1020.2 1.0
30/06:30pm 15.3 9.5 6.3 55 4.4 SSW 26 33 14 18 1019.9 1019.8 1.0
30/06:00pm 15.6 9.5 6.6 55 4.4 SSW 28 35 15 19 1019.5 1019.4 1.0
30/05:30pm 15.8 10.4 8.1 60 3.9 SSW 26 39 14 21 1019.0 1018.9 1.0
30/05:00pm 15.5 9.8 6.8 56 4.3 SSW 26 43 14 23 1018.9 1018.8 1.0
30/04:30pm 15.4 9.0 8.4 63 3.5 SSW 32 44 17 24 1018.7 1018.6 1.0
30/04:25pm 15.2 8.6 8.4 64 3.4 SW 33 44 18 24 1018.6 1018.5 1.0
30/04:07pm 14.4 10.1 10.6 78 2.0 S 24 39 13 21 1018.4 1018.3 0.8
30/04:00pm 16.8 11.5 6.9 52 4.9 SSW 24 33 13 18 1018.2 1018.1 0.0
30/03:30pm 17.5 11.6 7.5 52 5.0 S 28 39 15 21 1017.9 1017.8 0.0
30/03:00pm 17.1 10.0 6.6 50 5.2 SSW 33 44 18 24 1017.9 1017.8 0.0
30/02:30pm 17.5 10.7 6.7 49 5.4 SSW 32 46 17 25 1017.9 1017.8 0.0
30/02:00pm 16.9 11.2 6.7 51 5.0 SSW 26 37 14 20 1017.7 1017.6 0.0
30/01:30pm 17.9 13.0 7.0 49 5.5 SSW 22 37 12 20 1017.6 1017.5 0.0
30/01:00pm 17.1 10.5 6.0 48 5.4 SSW 30 43 16 23 1017.7 1017.6 0.0
30/12:30pm 17.0 11.5 7.4 53 4.8 SW 26 39 14 21 1017.8 1017.7 0.0
30/12:00pm 16.4 10.8 7.3 55 4.5 SW 26 35 14 19 1017.7 1017.6 0.0
30/11:30am 16.2 10.5 8.4 60 4.0 SW 28 39 15 21 1017.7 1017.6 0.0
30/11:00am 15.6 11.1 8.4 62 3.6 WSW 22 32 12 17 1017.7 1017.6 0.0
30/10:30am 14.5 8.7 8.0 65 3.2 WSW 28 41 15 22 1017.6 1017.5 0.0
30/10:00am 13.6 9.6 9.1 74 2.3 W 20 28 11 15 1017.3 1017.2 0.0
30/09:30am 12.0 8.9 8.7 80 1.6 W 15 20 8 11 1017.1 1017.0 0.0
30/09:00am 10.4 6.7 7.8 84 1.3 W 17 20 9 11 1016.9 1016.8 4.8
30/08:30am 9.6 6.6 7.5 87 1.0 WNW 13 19 7 10 1016.3 1016.2 4.8
30/08:00am 8.1 5.2 8.0 99 0.0 WNW 13 15 7 8 1015.9 1015.8 4.8
30/07:30am 7.5 4.7 7.1 97 0.2 NW 11 13 6 7 1015.6 1015.5 4.8
30/07:00am 8.1 5.4 7.5 96 0.3 NW 11 15 6 8 1015.1 1015.0 4.8
30/06:30am 8.4 6.2 7.8 96 0.3 WNW 9 15 5 8 1014.8 1014.7 4.8
30/06:00am 9.6 6.4 8.4 92 0.6 WNW 15 20 8 11 1014.3 1014.2 4.8
30/05:30am 8.9 7.4 8.3 96 0.3 NNW 6 9 3 5 1013.8 1013.7 4.8
30/05:00am 9.2 7.2 8.6 96 0.3 NW 9 15 5 8 1013.7 1013.6 4.6
30/04:30am 9.1 7.1 8.6 97 0.2 NNW 9 11 5 6 1013.3 1013.2 4.6
30/04:00am 9.5 7.1 8.7 95 0.4 NW 11 13 6 7 1013.3 1013.2 4.6
30/03:30am 9.8 7.6 9.3 97 0.2 NNW 11 13 6 7 1013.4 1013.3 4.6
30/03:00am 10.2 8.1 9.9 98 0.2 N 11 15 6 8 1013.5 1013.4 4.6
30/02:30am 10.2 7.3 9.7 97 0.3 NNW 15 20 8 11 1013.3 1013.2 4.6
30/02:00am 10.2 8.4 9.6 96 0.3 NNW 9 13 5 7 1013.3 1013.2 4.6
30/01:30am 10.2 8.5 9.7 97 0.3 NNW 9 13 5 7 1013.3 1013.2 4.6
30/01:00am 10.7 8.4 10.4 98 0.2 NW 13 17 7 9 1013.5 1013.4 4.2
30/12:30am 10.7 9.1 10.2 97 0.3 NW 9 13 5 7 1012.9 1012.8 3.4
30/12:00am 10.7 8.6 9.9 95 0.4 NW 11 15 6 8 1012.9 1012.8 2.8
 
Date/Time
EDT
Temp
°C
App
Temp
°C
Dew
Point
°C
Rel
Hum
%
Delta-T
°C
Wind Press
QNH
hPa
Press
MSL
hPa
Rain since
9am
mm
Dir  Spd
km/h
Gust
km/h
Spd
kts
Gust
kts
29/11:30pm 10.8 8.6 9.4 91 0.7 WNW 11 17 6 9 1012.9 1012.8 2.2
29/11:00pm 11.3 9.2 9.9 91 0.7 WNW 11 15 6 8 1012.7 1012.6 1.2
29/10:30pm 11.6 8.3 9.7 88 1.0 WSW 17 24 9 13 1012.6 1012.5 0.4
29/10:00pm 12.9 6.4 8.0 72 2.4 SW 32 41 17 22 1012.3 1012.2 0.0
29/09:30pm 14.0 9.1 8.6 70 2.7 WSW 24 39 13 21 1011.7 1011.6 0.0
29/09:00pm 14.3 9.1 8.9 70 2.7 WSW 26 39 14 21 1010.9 1010.9 0.0
29/08:33pm 14.4 8.5 9.0 70 2.7 WSW 30 48 16 26 1010.4 1010.4 0.0
29/08:30pm 14.4 8.2 9.2 71 2.7 WSW 32 48 17 26 1010.3 1010.3 0.0
29/08:00pm 15.3 9.4 10.5 73 2.5 SW 32 54 17 29 1009.3 1009.3 0.0
29/07:32pm 15.7 8.1 11.7 77 2.2 SW 43 63 23 34 1008.4 1008.4 0.0
29/07:30pm 15.8 8.2 11.8 77 2.2 SW 43 59 23 32 1008.4 1008.4 0.0
29/07:22pm 16.0 9.2 12.0 77 2.2 SSW 39 57 21 31 1008.1 1008.1 0.0
29/07:00pm 18.3 10.9 12.5 69 3.2 WSW 43 65 23 35 1007.1 1007.1 0.0
29/06:55pm 20.6 14.9 11.8 57 4.9 W 33 65 18 35 1006.6 1006.6 0.0
29/06:53pm 21.9 16.8 11.9 53 5.6 W 30 65 16 35 1006.5 1006.5 0.0
29/06:52pm 23.5 18.9 10.9 45 7.0 W 26 63 14 34 1006.1 1006.1 0.0
29/06:30pm 24.6 19.1 9.0 37 8.4 WNW 28 39 15 21 1005.1 1005.1 0.0
29/06:00pm 25.2 19.4 9.5 37 8.6 WNW 30 39 16 21 1004.6 1004.6 0.0
29/05:30pm 25.7 20.7 9.5 36 8.9 NW 26 39 14 21 1004.4 1004.4 0.0
29/05:00pm 26.0 19.7 8.9 34 9.3 NW 32 41 17 22 1004.1 1004.1 0.0
29/04:30pm 26.3 20.2 9.6 35 9.2 WNW 32 41 17 22 1004.2 1004.2 0.0
29/04:00pm 26.7 19.9 9.1 33 9.7 NW 35 46 19 25 1004.0 1004.0 0.0
29/03:30pm 26.4 20.7 9.7 35 9.2 NW 30 44 16 24 1004.3 1004.3 0.0
29/03:04pm 26.8 20.6 10.1 35 9.3 NW 33 52 18 28 1004.6 1004.6 0.0
29/03:00pm 26.9 19.8 9.7 34 9.6 NW 37 52 20 28 1004.6 1004.6 0.0
29/02:54pm 26.7 20.5 9.5 34 9.5 NW 32 50 17 27 1004.7 1004.7 0.0
29/02:30pm 26.5 20.1 9.4 34 9.4 NW 33 46 18 25 1005.0 1005.0 0.0
29/02:07pm 26.8 20.4 9.2 33 9.7 NW 33 54 18 29 1005.3 1005.3 0.0
29/02:00pm 26.6 20.5 9.9 35 9.3 NW 32 46 17 25 1005.5 1005.5 0.0
29/01:30pm 25.9 19.8 9.7 36 8.9 NW 32 41 17 22 1006.0 1006.0 0.0
29/01:00pm 25.7 18.6 9.5 36 8.9 NNW 37 54 20 29 1006.5 1006.5 0.0
29/12:52pm 26.2 20.0 10.0 36 9.0 NNW 33 54 18 29 1006.5 1006.5 0.0
29/12:30pm 26.2 20.0 10.0 36 9.0 NNW 33 50 18 27 1006.9 1006.9 0.0
29/12:15pm 25.0 19.0 10.1 39 8.2 NNW 32 50 17 27 1007.1 1007.1 0.0
29/12:00pm 24.1 17.5 10.0 41 7.8 NNW 35 46 19 25 1007.3 1007.3 0.0
29/11:45am 24.0 17.9 9.9 41 7.7 NNW 32 50 17 27 1007.5 1007.5 0.0
29/11:30am 23.9 17.8 9.9 41 7.7 NNW 32 43 17 23 1007.6 1007.6 0.0
29/11:00am 23.3 17.3 10.0 43 7.3 NNW 32 44 17 24 1007.9 1007.9 0.0
29/10:30am 22.6 17.4 10.1 45 6.8 NNW 28 44 15 24 1008.3 1008.3 0.0
29/10:29am 22.5 17.2 10.0 45 6.8 NNW 28 44 15 24 1008.3 1008.3 0.0
29/10:00am 20.7 18.3 11.3 55 5.2 N 15 20 8 11 1008.6 1008.6 0.0
29/09:30am 18.3 15.7 10.7 61 4.1 N 15 24 8 13 1008.8 1008.8 0.0
29/09:00am 15.6 14.5 10.8 73 2.6 N 7 11 4 6 1008.9 1008.9 0.2
29/08:30am 14.5 13.5 11.1 80 1.8 WNW 7 9 4 5 1009.2 1009.2 0.2
29/08:00am 13.3 12.3 10.3 82 1.6 WSW 6 7 3 4 1009.2 1009.2 0.2
29/07:30am 13.3 12.0 10.1 81 1.7 W 7 9 4 5 1009.0 1009.0 0.2
29/07:00am 13.4 11.7 10.0 80 1.8 WSW 9 11 5 6 1009.1 1009.1 0.2
29/06:30am 13.8 12.2 10.2 79 1.9 N 9 13 5 7 1009.1 1009.1 0.2
29/06:00am 13.5 11.2 10.3 81 1.7 NNE 13 17 7 9 1009.1 1009.1 0.2
29/05:30am 12.1 10.9 10.3 89 0.9 NNE 7 9 4 5 1008.8 1008.8 0.2
29/05:00am 12.1 10.9 10.3 89 0.9 NNW 7 9 4 5 1009.0 1009.0 0.2
29/04:30am 12.6 11.8 11.0 90 0.8 NW 6 7 3 4 1009.3 1009.3 0.2
29/04:00am 12.1 10.8 11.2 94 0.5 NW 9 11 5 6 1009.5 1009.5 0.2
29/03:30am 12.4 11.5 11.3 93 0.6 N 7 9 4 5 1009.8 1009.8 0.2
29/03:00am 13.3 12.6 12.0 92 0.7 NNE 7 11 4 6 1010.1 1010.1 0.2
29/02:30am 12.7 12.2 12.2 97 0.3 W 6 9 3 5 1010.1 1010.1 0.2
29/02:00am 12.2 10.7 11.9 98 0.2 NW 11 11 6 6 1010.3 1010.3 0.2
29/01:30am 12.7 10.9 12.1 96 0.3 NW 13 15 7 8 1010.6 1010.6 0.2
29/01:00am 13.5 12.3 12.9 96 0.3 NW 11 15 6 8 1010.7 1010.7 0.2
29/12:30am 13.2 11.5 12.3 94 0.5 NW 13 15 7 8 1010.8 1010.8 0.2
29/12:00am 13.6 12.6 12.2 91 0.8 NW 9 13 5 7 1011.0 1011.0 0.2
 
Date/Time
EDT
Temp
°C
App
Temp
°C
Dew
Point
°C
Rel
Hum
%
Delta-T
°C
Wind Press
QNH
hPa
Press
MSL
hPa
Rain since
9am
mm
Dir  Spd
km/h
Gust
km/h
Spd
kts
Gust
kts
28/11:30pm 14.0 12.8 11.7 86 1.2 NW 9 11 5 6 1011.2 1011.2 0.2
28/11:00pm 14.8 15.3 11.6 81 1.7 CALM 0 6 0 3 1011.7 1011.6 0.2
28/10:30pm 16.2 16.9 12.2 77 2.2 CALM 0 6 0 3 1011.8 1011.7 0.2
28/10:00pm 17.1 16.7 12.4 74 2.6 S 6 11 3 6 1011.9 1011.8 0.2
28/09:30pm 17.5 18.4 12.8 74 2.6 CALM 0 0 0 0 1011.8 1011.7 0.2
28/09:00pm 17.8 18.1 13.3 75 2.5 SE 4 6 2 3 1011.7 1011.6 0.2
28/08:30pm 18.9 18.7 13.5 71 3.1 SE 7 7 4 4 1011.2 1011.2 0.2
28/08:00pm 19.2 18.9 13.2 68 3.4 ESE 7 9 4 5 1011.1 1011.1 0.2
28/07:30pm 19.9 19.1 12.9 64 4.0 ESE 9 11 5 6 1011.0 1011.0 0.2
28/07:00pm 21.1 19.4 10.0 49 6.0 SE 9 13 5 7 1011.0 1011.0 0.2
28/06:30pm 21.9 20.1 10.7 49 6.2 ESE 11 13 6 7 1010.8 1010.8 0.2
28/06:00pm 22.5 21.1 10.9 48 6.4 ESE 9 11 5 6 1010.8 1010.8 0.2
28/05:30pm 22.3 20.5 10.8 48 6.3 ESE 11 15 6 8 1010.9 1010.9 0.2
28/05:00pm 22.7 21.1 11.7 49 6.2 ESE 11 15 6 8 1010.9 1010.9 0.2
28/04:30pm 22.5 20.3 10.9 48 6.4 ESE 13 20 7 11 1011.2 1011.2 0.2
28/04:00pm 22.0 19.5 11.1 50 6.0 SE 15 20 8 11 1011.5 1011.5 0.2
28/03:30pm 21.6 19.1 11.0 51 5.8 ESE 15 22 8 12 1011.8 1011.7 0.2
28/03:00pm 22.3 20.1 10.8 48 6.3 SE 13 17 7 9 1012.0 1011.9 0.2
28/02:30pm 23.2 21.3 8.9 40 7.7 NNE 9 19 5 10 1012.3 1012.2 0.2
28/02:00pm 22.4 20.5 9.2 43 7.1 W 9 19 5 10 1012.7 1012.6 0.2
28/01:30pm 22.1 19.8 8.9 43 7.0 W 11 24 6 13 1013.1 1013.0 0.0
28/01:00pm 21.3 19.2 9.9 48 6.2 NW 11 20 6 11 1013.5 1013.4 0.0
28/12:30pm 21.2 18.0 10.1 49 6.0 WNW 17 28 9 15 1013.9 1013.8 0.0
28/12:00pm 20.4 17.3 10.2 52 5.5 W 17 24 9 13 1014.4 1014.3 0.0
28/11:30am 19.5 16.2 9.7 53 5.2 WNW 17 22 9 12 1014.8 1014.7 0.0
28/11:00am 19.1 16.0 10.4 57 4.7 WNW 17 24 9 13 1014.8 1014.7 0.0
28/10:30am 18.3 15.4 9.6 57 4.6 WNW 15 20 8 11 1015.2 1015.1 0.0
28/10:00am 17.3 13.9 10.7 65 3.5 NW 19 22 10 12 1015.2 1015.1 0.0
28/09:30am 16.3 13.8 11.0 71 2.8 NW 15 20 8 11 1015.0 1014.9 0.0
28/09:00am 14.8 13.1 11.2 79 1.9 NW 11 15 6 8 1014.9 1014.8 1.0
28/08:30am 12.3 11.4 10.5 89 0.9 N 6 7 3 4 1014.7 1014.6 1.0
28/08:00am 10.4 8.9 9.0 91 0.7 NNW 7 9 4 5 1014.8 1014.7 1.0
28/07:30am 10.4 8.8 8.7 89 0.8 NNW 7 9 4 5 1014.6 1014.5 1.0
28/07:00am 10.5 8.9 8.8 89 0.8 N 7 9 4 5 1014.4 1014.3 1.0
28/06:30am 10.9 8.9 8.8 87 1.0 NNW 9 11 5 6 1014.1 1014.0 1.0
28/06:00am 10.8 8.9 9.2 90 0.8 N 9 13 5 7 1013.9 1013.8 1.0
28/05:30am 11.0 8.7 9.1 88 0.9 NNW 11 15 6 8 1013.7 1013.6 1.0
28/05:00am 10.4 8.4 8.8 90 0.8 NW 9 13 5 7 1013.4 1013.3 1.0
28/04:30am 10.7 8.4 9.1 90 0.8 NW 11 13 6 7 1013.5 1013.4 1.0
28/04:00am 10.7 8.1 9.3 91 0.7 NW 13 15 7 8 1013.6 1013.5 1.0
28/03:30am 10.9 8.3 9.3 90 0.8 NW 13 15 7 8 1013.7 1013.6 1.0

Other Formats:

Comma delimited format used in spreadsheet applications
http://www.bom.gov.au/fwo/IDV60801/IDV60801.94865.axf

JavaScript Object Notation format (JSON) in row-major order
http://www.bom.gov.au/fwo/IDV60801/IDV60801.94865.json